sensor_id;sensor_type;location;lat;lon;timestamp;pressure;altitude;pressure_sealevel;temperature;humidity
46412;BME280;32113;42.012;24.870;2022-08-16T00:00:17;98346.53;;;23.77;55.04
46412;BME280;32113;42.012;24.870;2022-08-16T00:02:43;98351.28;;;23.71;55.15
46412;BME280;32113;42.012;24.870;2022-08-16T00:05:10;98348.19;;;23.66;55.47
46412;BME280;32113;42.012;24.870;2022-08-16T00:07:36;98348.81;;;23.81;54.99
46412;BME280;32113;42.012;24.870;2022-08-16T00:10:04;98346.28;;;23.80;54.93
46412;BME280;32113;42.012;24.870;2022-08-16T00:12:31;98346.16;;;23.70;55.33
46412;BME280;32113;42.012;24.870;2022-08-16T00:14:59;98340.06;;;23.69;55.36
46412;BME280;32113;42.012;24.870;2022-08-16T00:17:25;98340.22;;;23.68;55.44
46412;BME280;32113;42.012;24.870;2022-08-16T00:19:52;98348.81;;;23.81;55.25
46412;BME280;32113;42.012;24.870;2022-08-16T00:22:17;98344.25;;;23.95;54.84
46412;BME280;32113;42.012;24.870;2022-08-16T00:24:43;98345.94;;;24.07;54.35
46412;BME280;32113;42.012;24.870;2022-08-16T00:27:09;98350.13;;;24.10;54.08
46412;BME280;32113;42.012;24.870;2022-08-16T00:29:35;98363.34;;;24.20;53.90
46412;BME280;32113;42.012;24.870;2022-08-16T00:32:03;98368.81;;;24.05;54.17
46412;BME280;32113;42.012;24.870;2022-08-16T00:34:29;98372.47;;;23.91;54.64
46412;BME280;32113;42.012;24.870;2022-08-16T00:36:55;98377.50;;;24.06;54.53
46412;BME280;32113;42.012;24.870;2022-08-16T00:39:20;98388.59;;;24.21;54.33
46412;BME280;32113;42.012;24.870;2022-08-16T00:41:47;98390.00;;;24.36;54.27
46412;BME280;32113;42.012;24.870;2022-08-16T00:44:15;98388.09;;;24.50;54.06
46412;BME280;32113;42.012;24.870;2022-08-16T00:46:58;98396.91;;;24.60;53.99
46412;BME280;32113;42.012;24.870;2022-08-16T00:49:26;98395.69;;;24.64;52.89
46412;BME280;32113;42.012;24.870;2022-08-16T00:51:52;98391.75;;;24.70;52.88
46412;BME280;32113;42.012;24.870;2022-08-16T00:54:18;98389.72;;;24.74;53.20
46412;BME280;32113;42.012;24.870;2022-08-16T00:56:46;98390.06;;;24.80;52.93
46412;BME280;32113;42.012;24.870;2022-08-16T00:59:14;98396.66;;;24.86;52.45
46412;BME280;32113;42.012;24.870;2022-08-16T01:01:40;98388.38;;;24.91;51.89
46412;BME280;32113;42.012;24.870;2022-08-16T01:04:07;98384.69;;;24.93;52.06
46412;BME280;32113;42.012;24.870;2022-08-16T01:06:34;98378.00;;;25.01;51.50
46412;BME280;32113;42.012;24.870;2022-08-16T01:09:00;98383.25;;;25.01;52.49
46412;BME280;32113;42.012;24.870;2022-08-16T01:11:30;98391.22;;;24.99;53.21
46412;BME280;32113;42.012;24.870;2022-08-16T01:14:02;98399.22;;;24.98;53.40
46412;BME280;32113;42.012;24.870;2022-08-16T01:16:29;98377.91;;;24.91;53.31
46412;BME280;32113;42.012;24.870;2022-08-16T01:19:09;98379.94;;;24.87;52.53
46412;BME280;32113;42.012;24.870;2022-08-16T01:21:46;98377.19;;;24.89;52.76
46412;BME280;32113;42.012;24.870;2022-08-16T01:24:38;98371.56;;;24.93;53.09
46412;BME280;32113;42.012;24.870;2022-08-16T01:27:15;98382.28;;;25.02;52.64
46412;BME280;32113;42.012;24.870;2022-08-16T01:30:05;98383.94;;;25.03;53.36
46412;BME280;32113;42.012;24.870;2022-08-16T01:32:33;98377.66;;;24.94;53.72
46412;BME280;32113;42.012;24.870;2022-08-16T01:35:03;98379.44;;;24.93;54.00
46412;BME280;32113;42.012;24.870;2022-08-16T01:37:29;98388.91;;;24.85;53.97
46412;BME280;32113;42.012;24.870;2022-08-16T01:40:03;98388.16;;;24.83;54.62
46412;BME280;32113;42.012;24.870;2022-08-16T01:42:29;98385.91;;;24.78;54.90
46412;BME280;32113;42.012;24.870;2022-08-16T01:44:55;98391.38;;;24.75;55.28
46412;BME280;32113;42.012;24.870;2022-08-16T01:47:20;98387.13;;;24.85;55.03
46412;BME280;32113;42.012;24.870;2022-08-16T01:49:45;98395.81;;;24.86;54.84
46412;BME280;32113;42.012;24.870;2022-08-16T01:52:13;98398.06;;;24.79;54.72
46412;BME280;32113;42.012;24.870;2022-08-16T01:54:40;98405.38;;;24.64;54.19
46412;BME280;32113;42.012;24.870;2022-08-16T01:57:07;98414.19;;;24.63;53.91
46412;BME280;32113;42.012;24.870;2022-08-16T01:59:34;98414.44;;;24.60;54.31
46412;BME280;32113;42.012;24.870;2022-08-16T02:02:00;98405.03;;;24.57;54.57
46412;BME280;32113;42.012;24.870;2022-08-16T02:04:28;98403.00;;;24.61;54.67
46412;BME280;32113;42.012;24.870;2022-08-16T02:06:53;98397.50;;;24.52;52.96
46412;BME280;32113;42.012;24.870;2022-08-16T02:09:21;98402.88;;;24.28;53.83
46412;BME280;32113;42.012;24.870;2022-08-16T02:11:50;98408.69;;;24.09;54.33
46412;BME280;32113;42.012;24.870;2022-08-16T02:14:16;98412.16;;;24.09;54.72
46412;BME280;32113;42.012;24.870;2022-08-16T02:16:41;98408.63;;;24.10;54.29
46412;BME280;32113;42.012;24.870;2022-08-16T02:19:09;98409.53;;;24.09;54.08
46412;BME280;32113;42.012;24.870;2022-08-16T02:21:36;98395.63;;;24.20;53.94
46412;BME280;32113;42.012;24.870;2022-08-16T02:24:01;98406.84;;;24.22;54.06
46412;BME280;32113;42.012;24.870;2022-08-16T02:26:26;98407.19;;;24.29;54.40
46412;BME280;32113;42.012;24.870;2022-08-16T02:28:52;98407.06;;;24.19;53.87
46412;BME280;32113;42.012;24.870;2022-08-16T02:31:18;98408.81;;;24.07;54.25
46412;BME280;32113;42.012;24.870;2022-08-16T02:33:44;98406.41;;;23.93;54.37
46412;BME280;32113;42.012;24.870;2022-08-16T02:36:11;98405.72;;;23.91;54.90
46412;BME280;32113;42.012;24.870;2022-08-16T02:38:37;98403.91;;;23.91;54.88
46412;BME280;32113;42.012;24.870;2022-08-16T02:41:06;98406.78;;;23.99;54.76
46412;BME280;32113;42.012;24.870;2022-08-16T02:43:32;98411.78;;;23.91;54.84
46412;BME280;32113;42.012;24.870;2022-08-16T02:45:58;98411.66;;;23.93;55.08
46412;BME280;32113;42.012;24.870;2022-08-16T02:48:25;98408.22;;;24.04;54.86
46412;BME280;32113;42.012;24.870;2022-08-16T02:50:51;98408.63;;;24.10;54.50
46412;BME280;32113;42.012;24.870;2022-08-16T02:53:17;98410.28;;;24.11;55.16
46412;BME280;32113;42.012;24.870;2022-08-16T02:55:42;98415.28;;;24.14;53.99
46412;BME280;32113;42.012;24.870;2022-08-16T02:58:08;98408.38;;;24.25;53.74
46412;BME280;32113;42.012;24.870;2022-08-16T03:00:34;98415.78;;;24.20;53.68
46412;BME280;32113;42.012;24.870;2022-08-16T03:02:59;98411.88;;;23.89;54.32
46412;BME280;32113;42.012;24.870;2022-08-16T03:05:25;98414.34;;;23.68;54.99
46412;BME280;32113;42.012;24.870;2022-08-16T03:07:51;98409.91;;;23.57;55.20
46412;BME280;32113;42.012;24.870;2022-08-16T03:10:17;98408.91;;;23.35;55.64
46412;BME280;32113;42.012;24.870;2022-08-16T03:12:43;98412.16;;;23.26;56.23
46412;BME280;32113;42.012;24.870;2022-08-16T03:15:10;98418.53;;;23.10;56.98
46412;BME280;32113;42.012;24.870;2022-08-16T03:17:36;98414.47;;;23.06;57.13
46412;BME280;32113;42.012;24.870;2022-08-16T03:20:04;98417.78;;;23.08;57.04
46412;BME280;32113;42.012;24.870;2022-08-16T03:22:30;98420.09;;;23.13;56.85
46412;BME280;32113;42.012;24.870;2022-08-16T03:25:01;98431.53;;;23.23;56.46
46412;BME280;32113;42.012;24.870;2022-08-16T03:27:28;98429.09;;;23.33;55.91
46412;BME280;32113;42.012;24.870;2022-08-16T03:29:54;98436.44;;;23.28;56.65
46412;BME280;32113;42.012;24.870;2022-08-16T03:32:20;98430.69;;;23.23;56.58
46412;BME280;32113;42.012;24.870;2022-08-16T03:34:45;98429.00;;;23.35;56.44
46412;BME280;32113;42.012;24.870;2022-08-16T03:37:11;98430.19;;;23.18;56.65
46412;BME280;32113;42.012;24.870;2022-08-16T03:39:37;98443.06;;;23.21;56.47
46412;BME280;32113;42.012;24.870;2022-08-16T03:42:04;98447.53;;;23.07;57.09
46412;BME280;32113;42.012;24.870;2022-08-16T03:44:30;98456.03;;;22.98;57.30
46412;BME280;32113;42.012;24.870;2022-08-16T03:46:56;98455.25;;;23.09;57.34
46412;BME280;32113;42.012;24.870;2022-08-16T03:49:22;98469.31;;;22.95;57.39
46412;BME280;32113;42.012;24.870;2022-08-16T03:51:47;98453.34;;;23.11;57.10
46412;BME280;32113;42.012;24.870;2022-08-16T03:54:13;98464.03;;;23.08;56.69
46412;BME280;32113;42.012;24.870;2022-08-16T03:56:38;98470.84;;;23.10;56.99
46412;BME280;32113;42.012;24.870;2022-08-16T03:59:04;98470.84;;;23.10;57.16
46412;BME280;32113;42.012;24.870;2022-08-16T04:01:29;98460.03;;;23.15;56.99
46412;BME280;32113;42.012;24.870;2022-08-16T04:03:55;98457.94;;;23.20;56.91
46412;BME280;32113;42.012;24.870;2022-08-16T04:06:21;98453.53;;;23.21;56.65
46412;BME280;32113;42.012;24.870;2022-08-16T04:08:46;98463.44;;;23.04;57.02
46412;BME280;32113;42.012;24.870;2022-08-16T04:11:12;98454.50;;;22.82;58.13
46412;BME280;32113;42.012;24.870;2022-08-16T04:13:38;98459.94;;;22.79;58.02
46412;BME280;32113;42.012;24.870;2022-08-16T04:16:04;98454.28;;;22.86;57.89
46412;BME280;32113;42.012;24.870;2022-08-16T04:18:30;98455.44;;;22.81;57.87
46412;BME280;32113;42.012;24.870;2022-08-16T04:20:56;98463.28;;;22.81;57.88
46412;BME280;32113;42.012;24.870;2022-08-16T04:23:22;98467.16;;;22.89;57.57
46412;BME280;32113;42.012;24.870;2022-08-16T04:25:47;98461.31;;;22.85;57.89
46412;BME280;32113;42.012;24.870;2022-08-16T04:28:13;98454.13;;;23.00;57.42
46412;BME280;32113;42.012;24.870;2022-08-16T04:30:38;98456.63;;;23.02;57.39
46412;BME280;32113;42.012;24.870;2022-08-16T04:33:05;98452.81;;;22.94;57.69
46412;BME280;32113;42.012;24.870;2022-08-16T04:35:30;98445.47;;;23.00;57.96
46412;BME280;32113;42.012;24.870;2022-08-16T04:37:56;98451.97;;;22.94;57.99
46412;BME280;32113;42.012;24.870;2022-08-16T04:40:23;98454.50;;;22.82;58.81
46412;BME280;32113;42.012;24.870;2022-08-16T04:42:49;98447.38;;;22.84;58.45
46412;BME280;32113;42.012;24.870;2022-08-16T04:45:16;98451.78;;;23.08;58.06
46412;BME280;32113;42.012;24.870;2022-08-16T04:47:43;98439.50;;;23.22;57.28
46412;BME280;32113;42.012;24.870;2022-08-16T04:50:17;98451.38;;;23.39;56.89
46412;BME280;32113;42.012;24.870;2022-08-16T04:52:45;98462.03;;;23.49;56.67
46412;BME280;32113;42.012;24.870;2022-08-16T04:55:20;98466.00;;;23.66;55.62
46412;BME280;32113;42.012;24.870;2022-08-16T04:57:48;98468.16;;;23.72;55.51
46412;BME280;32113;42.012;24.870;2022-08-16T05:00:17;98465.97;;;23.91;55.02
46412;BME280;32113;42.012;24.870;2022-08-16T05:02:44;98470.00;;;23.95;54.89
46412;BME280;32113;42.012;24.870;2022-08-16T05:05:11;98458.59;;;23.96;55.01
46412;BME280;32113;42.012;24.870;2022-08-16T05:07:37;98459.09;;;24.12;54.59
46412;BME280;32113;42.012;24.870;2022-08-16T05:10:04;98461.06;;;24.33;55.02
46412;BME280;32113;42.012;24.870;2022-08-16T05:12:31;98464.25;;;24.60;57.95
46412;BME280;32113;42.012;24.870;2022-08-16T05:14:56;98464.13;;;24.73;58.91
46412;BME280;32113;42.012;24.870;2022-08-16T05:17:22;98465.31;;;24.69;56.91
46412;BME280;32113;42.012;24.870;2022-08-16T05:19:47;98469.72;;;24.68;56.30
46412;BME280;32113;42.012;24.870;2022-08-16T05:22:13;98477.34;;;24.83;54.56
46412;BME280;32113;42.012;24.870;2022-08-16T05:24:39;98480.59;;;24.86;52.71
46412;BME280;32113;42.012;24.870;2022-08-16T05:27:04;98473.91;;;24.71;52.80
46412;BME280;32113;42.012;24.870;2022-08-16T05:29:30;98470.31;;;24.72;52.64
46412;BME280;32113;42.012;24.870;2022-08-16T05:31:55;98470.44;;;24.47;53.41
46412;BME280;32113;42.012;24.870;2022-08-16T05:34:21;98469.88;;;24.44;53.63
46412;BME280;32113;42.012;24.870;2022-08-16T05:36:47;98464.38;;;24.24;53.82
46412;BME280;32113;42.012;24.870;2022-08-16T05:39:18;98467.00;;;24.24;53.98
46412;BME280;32113;42.012;24.870;2022-08-16T05:41:43;98461.63;;;24.14;54.44
46412;BME280;32113;42.012;24.870;2022-08-16T05:44:09;98447.63;;;24.02;54.60
46412;BME280;32113;42.012;24.870;2022-08-16T05:46:34;98454.03;;;23.86;55.29
46412;BME280;32113;42.012;24.870;2022-08-16T05:49:00;98453.78;;;23.78;55.52
46412;BME280;32113;42.012;24.870;2022-08-16T05:51:26;98452.59;;;23.82;55.86
46412;BME280;32113;42.012;24.870;2022-08-16T05:53:51;98462.59;;;23.88;55.69
46412;BME280;32113;42.012;24.870;2022-08-16T05:56:17;98467.84;;;23.88;55.29
46412;BME280;32113;42.012;24.870;2022-08-16T05:58:42;98474.78;;;24.01;55.58
46412;BME280;32113;42.012;24.870;2022-08-16T06:01:08;98475.69;;;24.13;55.50
46412;BME280;32113;42.012;24.870;2022-08-16T06:03:33;98482.72;;;24.24;54.63
46412;BME280;32113;42.012;24.870;2022-08-16T06:05:59;98466.25;;;24.22;55.06
46412;BME280;32113;42.012;24.870;2022-08-16T06:08:25;98467.09;;;24.34;54.67
46412;BME280;32113;42.012;24.870;2022-08-16T06:10:51;98459.13;;;24.35;54.61
46412;BME280;32113;42.012;24.870;2022-08-16T06:13:16;98453.19;;;24.33;54.56
46412;BME280;32113;42.012;24.870;2022-08-16T06:15:42;98456.41;;;24.37;54.26
46412;BME280;32113;42.012;24.870;2022-08-16T06:18:07;98453.06;;;24.46;54.23
46412;BME280;32113;42.012;24.870;2022-08-16T06:20:33;98444.34;;;24.57;53.48
46412;BME280;32113;42.012;24.870;2022-08-16T06:22:58;98451.97;;;24.72;53.30
46412;BME280;32113;42.012;24.870;2022-08-16T06:25:26;98457.94;;;24.85;52.80
46412;BME280;32113;42.012;24.870;2022-08-16T06:27:52;98463.84;;;24.99;52.74
46412;BME280;32113;42.012;24.870;2022-08-16T06:30:18;98456.47;;;25.04;52.33
46412;BME280;32113;42.012;24.870;2022-08-16T06:32:44;98460.25;;;25.11;52.52
46412;BME280;32113;42.012;24.870;2022-08-16T06:35:09;98448.50;;;25.27;52.35
46412;BME280;32113;42.012;24.870;2022-08-16T06:37:36;98446.53;;;25.40;52.00
46412;BME280;32113;42.012;24.870;2022-08-16T06:40:02;98455.69;;;25.57;51.41
46412;BME280;32113;42.012;24.870;2022-08-16T06:42:28;98439.38;;;25.75;50.69
46412;BME280;32113;42.012;24.870;2022-08-16T06:44:53;98448.47;;;25.71;50.17
46412;BME280;32113;42.012;24.870;2022-08-16T06:47:19;98440.25;;;25.85;50.12
46412;BME280;32113;42.012;24.870;2022-08-16T06:49:44;98446.56;;;25.94;50.21
46412;BME280;32113;42.012;24.870;2022-08-16T06:52:10;98432.22;;;26.08;49.37
46412;BME280;32113;42.012;24.870;2022-08-16T06:54:35;98430.03;;;26.14;49.43
46412;BME280;32113;42.012;24.870;2022-08-16T06:57:01;98428.78;;;26.29;49.04
46412;BME280;32113;42.012;24.870;2022-08-16T06:59:26;98427.13;;;26.38;48.74
46412;BME280;32113;42.012;24.870;2022-08-16T07:01:52;98419.84;;;26.52;49.32
46412;BME280;32113;42.012;24.870;2022-08-16T07:04:18;98428.59;;;26.62;48.58
46412;BME280;32113;42.012;24.870;2022-08-16T07:06:43;98428.50;;;26.73;48.87
46412;BME280;32113;42.012;24.870;2022-08-16T07:09:13;98426.16;;;26.90;48.64
46412;BME280;32113;42.012;24.870;2022-08-16T07:11:39;98434.41;;;27.07;47.94
46412;BME280;32113;42.012;24.870;2022-08-16T07:14:04;98423.16;;;27.24;48.47
46412;BME280;32113;42.012;24.870;2022-08-16T07:16:30;98432.59;;;27.37;47.13
46412;BME280;32113;42.012;24.870;2022-08-16T07:18:55;98435.91;;;27.49;46.97
46412;BME280;32113;42.012;24.870;2022-08-16T07:21:22;98420.66;;;27.52;45.46
46412;BME280;32113;42.012;24.870;2022-08-16T07:23:47;98426.09;;;27.61;46.56
46412;BME280;32113;42.012;24.870;2022-08-16T07:26:19;98418.19;;;27.71;45.82
46412;BME280;32113;42.012;24.870;2022-08-16T07:28:45;98419.00;;;27.71;45.82
46412;BME280;32113;42.012;24.870;2022-08-16T07:31:10;98418.41;;;27.87;47.04
46412;BME280;32113;42.012;24.870;2022-08-16T07:33:36;98418.25;;;27.99;46.78
46412;BME280;32113;42.012;24.870;2022-08-16T07:36:04;98412.19;;;28.16;46.43
46412;BME280;32113;42.012;24.870;2022-08-16T07:38:29;98407.31;;;28.31;44.14
46412;BME280;32113;42.012;24.870;2022-08-16T07:40:55;98401.94;;;28.51;44.66
46412;BME280;32113;42.012;24.870;2022-08-16T07:43:21;98413.81;;;28.65;44.25
46412;BME280;32113;42.012;24.870;2022-08-16T07:45:47;98413.53;;;28.87;43.17
46412;BME280;32113;42.012;24.870;2022-08-16T07:48:13;98412.06;;;29.02;42.52
46412;BME280;32113;42.012;24.870;2022-08-16T07:50:40;98413.34;;;29.16;42.32
46412;BME280;32113;42.012;24.870;2022-08-16T07:53:05;98417.84;;;29.42;41.57
46412;BME280;32113;42.012;24.870;2022-08-16T07:55:31;98414.31;;;29.52;41.42
46412;BME280;32113;42.012;24.870;2022-08-16T07:57:56;98415.84;;;29.81;40.44
46412;BME280;32113;42.012;24.870;2022-08-16T08:00:22;98409.78;;;30.15;38.58
46412;BME280;32113;42.012;24.870;2022-08-16T08:02:47;98425.56;;;30.33;38.83
46412;BME280;32113;42.012;24.870;2022-08-16T08:05:13;98406.47;;;30.56;38.82
46412;BME280;32113;42.012;24.870;2022-08-16T08:07:38;98409.53;;;30.86;38.22
46412;BME280;32113;42.012;24.870;2022-08-16T08:10:04;98408.56;;;31.04;38.00
46412;BME280;32113;42.012;24.870;2022-08-16T08:12:30;98403.78;;;31.32;37.77
46412;BME280;32113;42.012;24.870;2022-08-16T08:14:56;98400.31;;;31.57;34.92
46412;BME280;32113;42.012;24.870;2022-08-16T08:17:21;98399.78;;;31.70;35.98
46412;BME280;32113;42.012;24.870;2022-08-16T08:19:47;98394.97;;;31.90;33.97
46412;BME280;32113;42.012;24.870;2022-08-16T08:22:13;98389.63;;;32.07;33.75
46412;BME280;32113;42.012;24.870;2022-08-16T08:24:38;98398.81;;;32.28;33.32
46412;BME280;32113;42.012;24.870;2022-08-16T08:27:05;98402.91;;;32.38;33.19
46412;BME280;32113;42.012;24.870;2022-08-16T08:29:33;98407.84;;;32.50;33.14
46412;BME280;32113;42.012;24.870;2022-08-16T08:31:59;98398.97;;;32.66;33.30
46412;BME280;32113;42.012;24.870;2022-08-16T08:34:26;98399.22;;;32.80;31.92
46412;BME280;32113;42.012;24.870;2022-08-16T08:36:52;98401.50;;;32.91;32.20
46412;BME280;32113;42.012;24.870;2022-08-16T08:39:17;98399.09;;;33.05;31.69
46412;BME280;32113;42.012;24.870;2022-08-16T08:41:43;98401.00;;;33.19;31.66
46412;BME280;32113;42.012;24.870;2022-08-16T08:44:10;98396.69;;;33.33;31.51
46412;BME280;32113;42.012;24.870;2022-08-16T08:46:36;98399.66;;;33.38;31.25
46412;BME280;32113;42.012;24.870;2022-08-16T08:49:03;98401.88;;;33.50;31.42
46412;BME280;32113;42.012;24.870;2022-08-16T08:51:29;98413.63;;;33.55;31.55
46412;BME280;32113;42.012;24.870;2022-08-16T08:53:55;98406.31;;;33.73;30.54
46412;BME280;32113;42.012;24.870;2022-08-16T08:56:20;98406.34;;;33.88;31.00
46412;BME280;32113;42.012;24.870;2022-08-16T08:58:46;98405.97;;;33.91;30.44
46412;BME280;32113;42.012;24.870;2022-08-16T09:01:12;98397.91;;;33.99;29.99
46412;BME280;32113;42.012;24.870;2022-08-16T09:03:38;98396.84;;;34.09;29.90
46412;BME280;32113;42.012;24.870;2022-08-16T09:06:06;98398.75;;;34.15;29.49
46412;BME280;32113;42.012;24.870;2022-08-16T09:08:32;98400.75;;;34.28;30.18
46412;BME280;32113;42.012;24.870;2022-08-16T09:10:59;98399.88;;;34.42;29.45
46412;BME280;32113;42.012;24.870;2022-08-16T09:13:25;98396.59;;;34.55;28.42
46412;BME280;32113;42.012;24.870;2022-08-16T09:15:52;98407.53;;;34.61;28.08
46412;BME280;32113;42.012;24.870;2022-08-16T09:18:20;98406.50;;;34.62;28.65
46412;BME280;32113;42.012;24.870;2022-08-16T09:20:47;98412.53;;;34.70;29.51
46412;BME280;32113;42.012;24.870;2022-08-16T09:23:13;98403.66;;;34.63;28.33
46412;BME280;32113;42.012;24.870;2022-08-16T09:25:39;98399.53;;;34.82;29.22
46412;BME280;32113;42.012;24.870;2022-08-16T09:28:05;98398.03;;;34.95;28.28
46412;BME280;32113;42.012;24.870;2022-08-16T09:30:31;98393.97;;;34.99;27.94
46412;BME280;32113;42.012;24.870;2022-08-16T09:33:01;98394.22;;;35.04;28.16
46412;BME280;32113;42.012;24.870;2022-08-16T09:35:27;98389.41;;;35.15;27.61
46412;BME280;32113;42.012;24.870;2022-08-16T09:37:52;98388.63;;;35.21;26.81
46412;BME280;32113;42.012;24.870;2022-08-16T09:40:18;98385.94;;;35.43;28.06
46412;BME280;32113;42.012;24.870;2022-08-16T09:42:43;98388.88;;;35.55;26.89
46412;BME280;32113;42.012;24.870;2022-08-16T09:45:10;98380.69;;;35.56;27.15
46412;BME280;32113;42.012;24.870;2022-08-16T09:47:36;98375.47;;;35.70;26.91
46412;BME280;32113;42.012;24.870;2022-08-16T09:50:09;98379.00;;;35.77;25.53
46412;BME280;32113;42.012;24.870;2022-08-16T09:52:35;98382.13;;;35.81;25.53
46412;BME280;32113;42.012;24.870;2022-08-16T09:55:07;98382.34;;;35.86;25.89
46412;BME280;32113;42.012;24.870;2022-08-16T09:57:34;98379.81;;;35.77;25.70
46412;BME280;32113;42.012;24.870;2022-08-16T10:00:00;98377.13;;;35.71;25.54
46412;BME280;32113;42.012;24.870;2022-08-16T10:02:27;98372.66;;;35.78;25.77
46412;BME280;32113;42.012;24.870;2022-08-16T10:04:53;98370.66;;;35.87;25.40
46412;BME280;32113;42.012;24.870;2022-08-16T10:07:19;98366.34;;;35.86;25.19
46412;BME280;32113;42.012;24.870;2022-08-16T10:09:44;98360.47;;;36.04;25.17
46412;BME280;32113;42.012;24.870;2022-08-16T10:12:10;98358.91;;;36.16;25.51
46412;BME280;32113;42.012;24.870;2022-08-16T10:14:54;98363.00;;;36.19;25.11
46412;BME280;32113;42.012;24.870;2022-08-16T10:17:20;98358.09;;;36.23;24.69
46412;BME280;32113;42.012;24.870;2022-08-16T10:19:46;98353.78;;;36.22;23.09
46412;BME280;32113;42.012;24.870;2022-08-16T10:22:11;98361.38;;;36.25;22.52
46412;BME280;32113;42.012;24.870;2022-08-16T10:24:38;98359.16;;;36.28;22.52
46412;BME280;32113;42.012;24.870;2022-08-16T10:27:05;98352.19;;;36.41;23.45
46412;BME280;32113;42.012;24.870;2022-08-16T10:29:31;98356.31;;;36.57;23.27
46412;BME280;32113;42.012;24.870;2022-08-16T10:31:57;98355.31;;;36.51;22.17
46412;BME280;32113;42.012;24.870;2022-08-16T10:34:22;98356.53;;;36.49;22.44
46412;BME280;32113;42.012;24.870;2022-08-16T10:36:48;98357.56;;;36.54;22.39
46412;BME280;32113;42.012;24.870;2022-08-16T10:39:13;98355.53;;;36.57;22.37
46412;BME280;32113;42.012;24.870;2022-08-16T10:41:39;98359.63;;;36.59;22.16
46412;BME280;32113;42.012;24.870;2022-08-16T10:44:04;98359.84;;;36.58;22.11
46412;BME280;32113;42.012;24.870;2022-08-16T10:46:30;98354.09;;;36.54;21.68
46412;BME280;32113;42.012;24.870;2022-08-16T10:48:56;98352.88;;;36.63;22.14
46412;BME280;32113;42.012;24.870;2022-08-16T10:51:22;98351.44;;;36.61;22.58
46412;BME280;32113;42.012;24.870;2022-08-16T10:53:48;98345.22;;;36.53;22.23
46412;BME280;32113;42.012;24.870;2022-08-16T10:56:14;98343.16;;;36.55;22.94
46412;BME280;32113;42.012;24.870;2022-08-16T10:58:39;98340.16;;;36.65;23.77
46412;BME280;32113;42.012;24.870;2022-08-16T11:01:05;98340.94;;;36.59;22.90
46412;BME280;32113;42.012;24.870;2022-08-16T11:03:33;98347.31;;;36.58;23.03
46412;BME280;32113;42.012;24.870;2022-08-16T11:05:59;98336.78;;;36.43;22.77
46412;BME280;32113;42.012;24.870;2022-08-16T11:08:24;98340.94;;;36.59;23.04
46412;BME280;32113;42.012;24.870;2022-08-16T11:10:50;98338.50;;;36.64;23.37
46412;BME280;32113;42.012;24.870;2022-08-16T11:13:21;98335.22;;;36.69;23.14
46412;BME280;32113;42.012;24.870;2022-08-16T11:15:47;98330.50;;;36.64;22.97
46412;BME280;32113;42.012;24.870;2022-08-16T11:18:13;98348.56;;;36.76;22.89
46412;BME280;32113;42.012;24.870;2022-08-16T11:20:40;98335.66;;;36.73;22.32
46412;BME280;32113;42.012;24.870;2022-08-16T11:23:08;98337.91;;;36.89;22.83
46412;BME280;32113;42.012;24.870;2022-08-16T11:25:34;98342.22;;;36.84;22.96
46412;BME280;32113;42.012;24.870;2022-08-16T11:28:00;98339.53;;;36.90;23.46
46412;BME280;32113;42.012;24.870;2022-08-16T11:30:27;98327.41;;;36.88;22.95
46412;BME280;32113;42.012;24.870;2022-08-16T11:32:54;98334.00;;;36.92;23.63
46412;BME280;32113;42.012;24.870;2022-08-16T11:35:22;98325.97;;;36.85;23.24
46412;BME280;32113;42.012;24.870;2022-08-16T11:37:50;98324.53;;;36.89;23.40
46412;BME280;32113;42.012;24.870;2022-08-16T11:40:17;98323.50;;;36.90;23.09
46412;BME280;32113;42.012;24.870;2022-08-16T11:42:42;98322.06;;;36.88;23.03
46412;BME280;32113;42.012;24.870;2022-08-16T11:45:09;98326.41;;;36.89;24.37
46412;BME280;32113;42.012;24.870;2022-08-16T11:47:35;98328.66;;;36.99;23.00
46412;BME280;32113;42.012;24.870;2022-08-16T11:50:02;98325.78;;;36.93;23.17
46412;BME280;32113;42.012;24.870;2022-08-16T11:52:27;98326.81;;;36.92;23.45
46412;BME280;32113;42.012;24.870;2022-08-16T11:54:53;98319.00;;;36.91;23.31
46412;BME280;32113;42.012;24.870;2022-08-16T11:57:18;98317.56;;;36.88;23.79
46412;BME280;32113;42.012;24.870;2022-08-16T11:59:44;98310.38;;;36.82;23.43
46412;BME280;32113;42.012;24.870;2022-08-16T12:02:09;98310.97;;;36.71;23.41
46412;BME280;32113;42.012;24.870;2022-08-16T12:04:35;98313.38;;;36.52;23.69
46412;BME280;32113;42.012;24.870;2022-08-16T12:07:05;98313.59;;;36.50;24.33
46412;BME280;32113;42.012;24.870;2022-08-16T12:09:32;98311.13;;;36.49;23.78
46412;BME280;32113;42.012;24.870;2022-08-16T12:11:58;98300.44;;;36.62;24.32
46412;BME280;32113;42.012;24.870;2022-08-16T12:14:23;98310.56;;;36.67;24.30
46412;BME280;32113;42.012;24.870;2022-08-16T12:16:51;98305.22;;;36.67;24.17
46412;BME280;32113;42.012;24.870;2022-08-16T12:19:17;98310.31;;;36.62;23.86
46412;BME280;32113;42.012;24.870;2022-08-16T12:21:43;98294.88;;;36.50;23.89
46412;BME280;32113;42.012;24.870;2022-08-16T12:24:09;98291.19;;;36.38;24.16
46412;BME280;32113;42.012;24.870;2022-08-16T12:26:34;98290.31;;;36.24;24.16
46412;BME280;32113;42.012;24.870;2022-08-16T12:28:59;98291.91;;;36.11;24.81
46412;BME280;32113;42.012;24.870;2022-08-16T12:31:26;98290.00;;;35.98;24.63
46412;BME280;32113;42.012;24.870;2022-08-16T12:33:52;98282.22;;;35.97;25.21
46412;BME280;32113;42.012;24.870;2022-08-16T12:36:18;98291.47;;;36.08;25.64
46412;BME280;32113;42.012;24.870;2022-08-16T12:38:44;98287.84;;;36.15;25.07
46412;BME280;32113;42.012;24.870;2022-08-16T12:41:09;98285.41;;;36.21;25.06
46412;BME280;32113;42.012;24.870;2022-08-16T12:43:35;98283.78;;;36.40;25.25
46412;BME280;32113;42.012;24.870;2022-08-16T12:46:00;98286.28;;;36.55;25.36